Time;durP1;ratioP1;P1;durP2;ratioP2;P2;SDS_P1;SDS_P2;PMS_P1;PMS_P2;Temp;Humidity;BMP_temperature;BMP_pressure;BME280_temperature;BME280_humidity;BME280_pressure;Samples;Min_cycle;Max_cycle;Signal;HPM_P1;HPM_P2
2021/12/05 00:22:11;;;;;;;29.23;15.77;;;3.00;82.70;;;;;;5037119;28;20035;-75
2021/12/05 00:24:44;;;;;;;27.70;15.85;;;3.00;82.60;;;;;;5036483;28;20122;-75
2021/12/05 00:27:31;;;;;;;34.10;16.23;;;3.00;82.70;;;;;;5054039;28;20017;-76
2021/12/05 01:04:26;;;;;;;32.20;15.40;;;3.30;80.50;;;;;;5040199;28;20048;-81
2021/12/05 01:12:15;;;;;;;31.60;15.82;;;3.20;80.90;;;;;;5054479;28;20095;-81
2021/12/05 01:17:01;;;;;;;29.60;14.98;;;3.20;81.10;;;;;;5036501;28;20402;-81
2021/12/05 01:19:31;;;;;;;27.90;14.38;;;3.20;81.40;;;;;;5020314;28;20033;-82
2021/12/05 01:22:14;;;;;;;28.20;14.55;;;3.20;81.50;;;;;;5038716;28;20454;-82
2021/12/05 01:30:43;;;;;;;31.23;15.27;;;3.20;83.30;;;;;;5042118;28;20079;-81
2021/12/05 01:33:01;;;;;;;34.25;15.20;;;3.20;84.50;;;;;;5048569;28;20112;-79
2021/12/05 01:35:56;;;;;;;30.98;15.18;;;3.20;85.40;;;;;;5040611;28;20359;-80
2021/12/05 02:42:31;;;;;;;37.78;19.58;;;2.60;99.30;;;;;;5059645;28;20059;-79
2021/12/05 02:44:59;;;;;;;34.35;19.98;;;2.60;99.00;;;;;;5044622;28;20048;-80
2021/12/05 02:47:32;;;;;;;39.20;19.90;;;2.60;99.00;;;;;;5057460;28;20020;-80
2021/12/05 02:50:16;;;;;;;36.95;19.88;;;2.50;99.10;;;;;;5075252;28;20034;-80
2021/12/05 02:52:44;;;;;;;40.15;20.70;;;2.50;99.20;;;;;;5057408;28;20013;-80
2021/12/05 02:55:23;;;;;;;39.95;21.65;;;2.50;99.30;;;;;;5075270;28;20050;-81
2021/12/05 02:57:54;;;;;;;45.70;21.25;;;2.50;99.30;;;;;;5041436;28;20044;-78
2021/12/05 03:00:36;;;;;;;41.17;21.57;;;2.50;99.40;;;;;;5058072;28;20040;-80
2021/12/05 03:03:23;;;;;;;42.55;21.23;;;2.50;99.40;;;;;;5054848;28;20620;-80
2021/12/05 03:06:23;;;;;;;40.65;20.63;;;2.50;99.40;;;;;;5056032;28;20016;-79
2021/12/05 03:09:13;;;;;;;41.72;21.42;;;2.50;99.60;;;;;;5040951;28;20065;-75
2021/12/05 03:11:41;;;;;;;38.60;20.63;;;2.50;99.60;;;;;;5041968;28;20025;-75
2021/12/05 03:14:08;;;;;;;45.35;21.20;;;2.50;99.50;;;;;;5054921;28;20492;-76
2021/12/05 03:16:37;;;;;;;42.47;21.60;;;2.50;99.50;;;;;;5054667;28;20029;-75
2021/12/05 03:19:19;;;;;;;42.95;21.02;;;2.50;99.50;;;;;;5015122;28;20070;-75
2021/12/05 03:21:48;;;;;;;39.60;20.75;;;2.50;99.50;;;;;;5074600;28;20024;-75
2021/12/05 03:24:17;;;;;;;38.33;21.77;;;2.50;99.50;;;;;;5056677;28;20073;-75
2021/12/05 03:26:48;;;;;;;37.40;20.27;;;2.60;99.50;;;;;;5040038;28;20028;-75
2021/12/05 03:29:31;;;;;;;39.15;19.90;;;2.60;99.80;;;;;;5071639;28;20438;-76
2021/12/05 03:31:59;;;;;;;39.72;19.90;;;2.60;99.40;;;;;;5074210;28;20041;-76
2021/12/05 03:34:27;;;;;;;33.80;18.08;;;2.60;99.30;;;;;;5074519;28;20373;-77
2021/12/05 03:36:55;;;;;;;34.20;18.13;;;2.70;99.50;;;;;;5056231;28;20024;-76
2021/12/05 03:39:24;;;;;;;37.60;18.15;;;2.70;99.40;;;;;;5056293;28;20067;-77
2021/12/05 03:42:10;;;;;;;32.03;18.20;;;2.70;99.30;;;;;;5039570;28;20032;-76
2021/12/05 03:44:39;;;;;;;36.42;18.65;;;2.80;99.30;;;;;;5073595;28;20037;-77
2021/12/05 03:47:09;;;;;;;35.08;17.77;;;2.70;99.20;;;;;;5055918;28;20028;-76
2021/12/05 03:49:37;;;;;;;36.95;17.17;;;2.80;99.10;;;;;;5023020;28;20040;-77
2021/12/05 03:52:09;;;;;;;31.42;16.33;;;2.80;99.10;;;;;;5039442;28;20055;-75
2021/12/05 03:54:47;;;;;;;31.05;17.77;;;2.80;99.00;;;;;;5055716;28;20129;-75
2021/12/05 03:57:18;;;;;;;32.75;17.15;;;2.80;99.00;;;;;;5073824;28;20487;-75
2021/12/05 03:59:46;;;;;;;28.95;15.23;;;2.80;99.10;;;;;;5056205;28;20035;-75
2021/12/05 04:02:13;;;;;;;27.70;15.32;;;2.90;99.20;;;;;;5073918;28;20036;-76
2021/12/05 04:04:41;;;;;;;29.88;16.13;;;2.90;99.00;;;;;;5073651;28;20033;-77
2021/12/05 04:07:28;;;;;;;29.38;15.90;;;2.90;99.10;;;;;;5055597;28;20012;-76
2021/12/05 04:09:56;;;;;;;32.33;16.92;;;2.90;99.10;;;;;;5039072;28;20024;-76
2021/12/05 04:12:24;;;;;;;31.45;14.55;;;2.90;99.20;;;;;;5055786;28;20023;-75
2021/12/05 04:14:54;;;;;;;23.75;13.65;;;2.90;99.20;;;;;;5072191;28;20410;-76
2021/12/05 04:17:39;;;;;;;28.75;15.60;;;2.90;98.80;;;;;;5073515;28;20123;-74
2021/12/05 04:20:07;;;;;;;26.98;14.68;;;2.90;99.00;;;;;;5055469;28;20045;-76
2021/12/05 04:22:35;;;;;;;28.10;15.10;;;2.90;99.00;;;;;;5055413;28;20031;-75
2021/12/05 04:25:05;;;;;;;28.52;16.02;;;2.90;99.20;;;;;;5055483;28;20078;-74
2021/12/05 04:27:32;;;;;;;30.30;16.05;;;2.90;99.20;;;;;;5056030;28;20496;-76
2021/12/05 04:29:59;;;;;;;27.52;15.63;;;2.90;99.20;;;;;;5055362;28;20021;-74
2021/12/05 04:32:27;;;;;;;28.52;16.13;;;2.90;99.00;;;;;;5055307;28;20017;-76
2021/12/05 04:34:54;;;;;;;33.05;17.10;;;2.90;98.90;;;;;;5073798;28;20363;-76
2021/12/05 04:37:23;;;;;;;30.15;15.45;;;2.90;99.00;;;;;;5073679;28;20029;-76
2021/12/05 04:39:51;;;;;;;27.98;15.90;;;2.90;98.90;;;;;;5074498;28;20508;-76
2021/12/05 04:42:19;;;;;;;30.70;15.50;;;2.90;98.80;;;;;;5056283;28;20116;-74
2021/12/05 04:44:47;;;;;;;31.23;16.75;;;2.90;98.90;;;;;;5073135;28;20032;-74
2021/12/05 04:47:15;;;;;;;30.85;16.55;;;2.90;98.90;;;;;;5073339;28;20020;-76
2021/12/05 04:49:44;;;;;;;33.92;17.00;;;2.90;98.70;;;;;;5055092;28;20024;-76
2021/12/05 04:52:26;;;;;;;28.90;16.77;;;2.90;98.60;;;;;;5038501;28;20569;-76
2021/12/05 04:54:53;;;;;;;25.63;14.38;;;3.00;98.60;;;;;;5055160;28;20506;-75
2021/12/05 04:57:19;;;;;;;29.42;15.38;;;2.90;98.60;;;;;;5058971;28;20017;-76
2021/12/05 04:59:50;;;;;;;25.80;13.90;;;3.00;98.70;;;;;;5060606;28;20036;-76
2021/12/05 05:02:29;;;;;;;27.77;14.68;;;3.00;98.70;;;;;;5081223;28;20024;-76
2021/12/05 05:04:57;;;;;;;26.98;15.05;;;3.00;98.70;;;;;;5063301;28;20082;-76
2021/12/05 05:07:27;;;;;;;29.27;15.68;;;3.00;98.50;;;;;;5064765;28;20035;-76
2021/12/05 05:10:18;;;;;;;30.02;14.55;;;3.00;98.50;;;;;;5062495;28;20029;-74
2021/12/05 05:12:49;;;;;;;28.15;15.07;;;3.00;98.30;;;;;;5059670;28;20084;-75
2021/12/05 05:15:26;;;;;;;29.40;14.40;;;3.00;98.30;;;;;;5078164;28;20035;-76
2021/12/05 05:17:59;;;;;;;29.65;16.33;;;2.90;98.10;;;;;;5074982;28;20039;-76
2021/12/05 05:21:00;;;;;;;24.58;13.73;;;2.90;98.70;;;;;;5058679;28;20041;-75
2021/12/05 05:46:39;;;;;;;25.25;14.75;;;3.00;98.30;;;;;;5057997;28;20043;-75
2021/12/05 05:51:39;;;;;;;27.08;14.48;;;3.00;98.20;;;;;;5054829;28;20153;-75
2021/12/05 05:54:09;;;;;;;25.00;14.50;;;3.00;98.20;;;;;;5054820;28;20474;-77
2021/12/05 05:56:37;;;;;;;23.63;13.55;;;3.00;98.40;;;;;;5054987;28;20029;-76
2021/12/05 06:00:01;;;;;;;24.73;13.48;;;3.00;98.30;;;;;;5054313;28;20029;-75
2021/12/05 06:05:16;;;;;;;27.65;14.25;;;3.00;97.80;;;;;;5056028;28;20493;-78
2021/12/05 06:07:45;;;;;;;25.88;13.52;;;3.00;98.10;;;;;;5037562;28;20110;-73
2021/12/05 06:10:31;;;;;;;28.40;15.32;;;3.00;98.30;;;;;;5055642;28;20033;-75
2021/12/05 06:12:59;;;;;;;31.13;14.88;;;3.00;98.30;;;;;;5034567;28;20124;-74
2021/12/05 06:15:29;;;;;;;26.25;14.95;;;3.00;98.20;;;;;;5021687;28;20474;-75
2021/12/05 06:18:16;;;;;;;25.55;13.75;;;3.10;98.50;;;;;;5040463;28;20331;-74
2021/12/05 06:20:43;;;;;;;26.63;14.10;;;3.00;98.20;;;;;;5037596;28;20040;-74
2021/12/05 06:23:31;;;;;;;30.10;14.68;;;3.10;98.10;;;;;;5053655;28;20114;-74
2021/12/05 06:25:58;;;;;;;31.48;16.73;;;3.00;97.60;;;;;;5055680;28;20401;-74
2021/12/05 06:28:35;;;;;;;29.90;15.15;;;3.00;97.60;;;;;;5053466;28;20033;-74
2021/12/05 06:40:00;;;;;;;31.88;15.88;;;2.80;98.30;;;;;;4980568;28;20042;-77
2021/12/05 06:47:59;;;;;;;35.20;18.52;;;2.90;98.60;;;;;;5060113;28;20108;-75
2021/12/05 06:50:27;;;;;;;33.97;16.85;;;3.00;98.60;;;;;;5056982;28;20060;-76
2021/12/05 06:52:53;;;;;;;36.42;18.83;;;3.00;98.50;;;;;;5056996;28;20032;-76
2021/12/05 06:55:24;;;;;;;33.55;17.20;;;3.00;98.30;;;;;;5074955;28;20097;-75
2021/12/05 06:57:51;;;;;;;33.88;17.95;;;3.00;98.80;;;;;;5056955;28;20032;-75
2021/12/05 07:00:36;;;;;;;35.92;19.02;;;3.00;99.20;;;;;;5074722;28;20099;-76
2021/12/05 07:03:05;;;;;;;43.70;20.38;;;3.00;99.60;;;;;;5074956;28;20529;-76
2021/12/05 07:08:15;;;;;;;34.42;18.25;;;3.00;99.90;;;;;;5075158;28;20029;-75
2021/12/05 07:22:00;;;;;;;29.65;16.15;;;3.30;99.70;;;;;;5055368;28;20436;-77
2021/12/05 07:41:53;;;;;;;45.00;21.83;;;3.50;97.50;;;;;;5111282;27;20366;-75
2021/12/05 07:44:21;;;;;;;39.03;20.52;;;3.50;97.30;;;;;;5110657;28;20435;-75
2021/12/05 07:46:51;;;;;;;45.13;21.52;;;3.50;97.10;;;;;;5111556;28;20020;-75
2021/12/05 07:49:20;;;;;;;43.67;21.17;;;3.50;96.70;;;;;;5110921;28;20081;-75
2021/12/05 07:51:49;;;;;;;48.08;22.15;;;3.50;96.80;;;;;;5110445;28;20084;-74
2021/12/05 07:54:43;;;;;;;55.72;24.25;;;3.50;97.00;;;;;;5100888;28;20016;-75
2021/12/05 08:16:10;;;;;;;47.95;23.15;;;3.90;97.80;;;;;;5090374;28;20044;-75
2021/12/05 08:18:36;;;;;;;50.95;22.77;;;3.90;98.10;;;;;;5097749;28;20377;-75
2021/12/05 08:21:04;;;;;;;48.15;23.13;;;4.00;97.90;;;;;;5090020;28;20025;-76
2021/12/05 08:23:31;;;;;;;46.35;23.38;;;4.00;97.50;;;;;;5088819;28;20124;-74
2021/12/05 08:26:16;;;;;;;41.20;22.35;;;4.00;97.50;;;;;;5090291;28;20028;-74
2021/12/05 08:31:30;;;;;;;46.30;23.05;;;4.00;98.20;;;;;;5089685;28;20370;-74
2021/12/05 08:37:37;;;;;;;39.67;21.63;;;4.00;97.80;;;;;;5068030;28;20120;-74
2021/12/05 08:40:28;;;;;;;44.40;22.83;;;4.00;98.10;;;;;;5066992;28;20036;-76
2021/12/05 08:43:32;;;;;;;40.67;21.33;;;3.90;98.00;;;;;;5068863;28;20121;-76
2021/12/05 09:30:43;;;;;;;29.08;17.27;;;4.70;97.20;;;;;;5073658;28;20036;-75
2021/12/05 09:38:57;;;;;;;33.95;18.85;;;4.70;97.80;;;;;;5020248;28;20042;-75
2021/12/05 10:01:31;;;;;;;31.05;17.70;;;4.80;97.70;;;;;;5045056;28;20098;-76
2021/12/05 10:07:29;;;;;;;36.35;21.13;;;4.80;97.50;;;;;;5091395;28;20039;-73
2021/12/05 10:38:27;;;;;;;29.73;19.25;;;4.90;96.70;;;;;;4990987;28;20030;-76
2021/12/05 10:41:23;;;;;;;34.92;19.95;;;4.90;96.90;;;;;;5055840;28;20494;-76
2021/12/05 10:43:54;;;;;;;32.35;19.17;;;4.90;96.90;;;;;;5072808;28;20465;-76
2021/12/05 10:46:23;;;;;;;33.13;20.05;;;4.80;96.90;;;;;;5073186;28;20020;-76
2021/12/05 10:49:22;;;;;;;31.20;18.73;;;4.80;97.20;;;;;;5072790;28;20032;-75
2021/12/05 10:52:12;;;;;;;29.25;19.30;;;4.90;97.00;;;;;;5074154;28;20028;-75
2021/12/05 10:54:39;;;;;;;37.10;21.27;;;4.90;96.80;;;;;;5072530;28;20025;-76
2021/12/05 10:57:13;;;;;;;33.17;19.77;;;4.90;96.80;;;;;;5073623;28;20031;-76
2021/12/05 10:59:41;;;;;;;34.55;21.17;;;4.90;96.90;;;;;;5073877;28;20086;-75
2021/12/05 11:02:30;;;;;;;35.63;20.48;;;4.90;97.10;;;;;;5073578;28;20522;-75
2021/12/05 11:04:58;;;;;;;30.42;18.83;;;5.10;97.30;;;;;;5072616;28;20024;-77
2021/12/05 11:07:24;;;;;;;33.08;20.92;;;5.10;97.30;;;;;;5072355;28;20033;-76
2021/12/05 11:09:57;;;;;;;29.65;19.60;;;5.20;96.80;;;;;;5055642;28;20020;-77
2021/12/05 11:12:33;;;;;;;31.60;20.23;;;5.20;96.70;;;;;;5072243;28;20489;-78
2021/12/05 11:15:14;;;;;;;33.40;21.52;;;5.30;96.20;;;;;;5059116;28;20028;-77
2021/12/05 11:17:46;;;;;;;34.22;19.85;;;5.30;96.00;;;;;;5076972;28;20094;-76
2021/12/05 11:20:32;;;;;;;35.90;21.88;;;5.30;95.90;;;;;;5086731;28;20039;-75
2021/12/05 11:23:01;;;;;;;33.60;21.60;;;5.40;95.70;;;;;;5097387;28;20023;-77
2021/12/05 11:25:38;;;;;;;34.13;21.48;;;5.40;95.60;;;;;;5094078;28;20118;-74
2021/12/05 11:28:08;;;;;;;33.08;21.42;;;5.40;95.80;;;;;;5097085;28;20028;-73
2021/12/05 11:30:40;;;;;;;34.50;21.85;;;5.40;95.60;;;;;;5094302;28;20023;-76
2021/12/05 11:33:27;;;;;;;35.60;20.45;;;5.40;95.80;;;;;;5105095;28;20051;-76
2021/12/05 11:36:22;;;;;;;36.70;21.27;;;5.50;95.50;;;;;;5089129;28;20036;-75
2021/12/05 11:38:49;;;;;;;40.50;21.10;;;5.50;95.40;;;;;;5106166;28;20034;-74
2021/12/05 11:41:22;;;;;;;35.03;22.08;;;5.40;95.30;;;;;;5085861;28;20047;-75
2021/12/05 11:43:58;;;;;;;35.25;22.35;;;5.40;95.40;;;;;;5075618;28;20051;-76
2021/12/05 11:46:34;;;;;;;37.85;23.33;;;5.40;95.20;;;;;;5073964;28;20029;-76
2021/12/05 11:49:16;;;;;;;33.45;20.50;;;5.40;95.20;;;;;;5088043;28;20036;-75
2021/12/05 11:51:58;;;;;;;36.70;23.10;;;5.40;95.20;;;;;;5106886;28;20078;-73
2021/12/05 11:54:30;;;;;;;39.07;23.47;;;5.40;95.40;;;;;;5082332;28;20039;-73
2021/12/05 11:57:01;;;;;;;38.78;21.85;;;5.40;95.30;;;;;;5089469;28;20380;-72
2021/12/05 11:59:49;;;;;;;38.22;23.52;;;5.40;95.30;;;;;;5087958;28;20380;-75
2021/12/05 12:02:57;;;;;;;36.40;23.55;;;5.40;95.20;;;;;;5089989;28;20492;-76
2021/12/05 12:05:40;;;;;;;37.03;23.65;;;5.30;95.20;;;;;;5073976;28;20027;-78
2021/12/05 12:08:22;;;;;;;34.20;21.55;;;5.30;95.20;;;;;;5072967;28;20024;-76
2021/12/05 12:11:04;;;;;;;38.07;22.53;;;5.30;95.30;;;;;;5075753;28;20127;-77
2021/12/05 12:13:38;;;;;;;34.90;22.10;;;5.30;95.60;;;;;;5073998;28;20505;-74
2021/12/05 12:16:08;;;;;;;44.22;24.00;;;5.30;95.60;;;;;;5092830;28;20502;-73
2021/12/05 12:18:48;;;;;;;39.20;22.38;;;5.30;95.60;;;;;;5112965;28;20034;-75
2021/12/05 12:21:42;;;;;;;39.42;21.02;;;5.30;95.60;;;;;;5086127;28;20118;-77
2021/12/05 12:24:13;;;;;;;37.80;21.95;;;5.30;95.80;;;;;;5114644;28;20030;-74
2021/12/05 12:26:52;;;;;;;33.90;21.90;;;5.30;95.70;;;;;;5099741;28;20024;-75
2021/12/05 12:29:20;;;;;;;40.72;22.42;;;5.40;95.70;;;;;;5081357;28;20024;-79
2021/12/05 12:31:49;;;;;;;39.33;22.42;;;5.40;95.90;;;;;;5102522;28;20040;-78
2021/12/05 12:34:33;;;;;;;36.13;21.92;;;5.40;95.70;;;;;;5083920;28;20020;-76
2021/12/05 12:37:02;;;;;;;43.50;21.48;;;5.40;95.20;;;;;;5104019;28;20028;-77
2021/12/05 12:39:40;;;;;;;42.10;23.13;;;5.40;95.10;;;;;;5107259;28;20028;-73
2021/12/05 12:42:42;;;;;;;35.25;19.58;;;5.30;95.10;;;;;;5116469;28;20032;-73
2021/12/05 12:45:24;;;;;;;35.00;20.50;;;5.30;95.40;;;;;;5088950;28;20499;-74
2021/12/05 12:47:58;;;;;;;38.30;19.58;;;5.30;95.40;;;;;;5085555;28;20019;-74
2021/12/05 12:50:51;;;;;;;35.30;19.58;;;5.30;95.50;;;;;;5087919;28;20046;-74
2021/12/05 12:53:22;;;;;;;32.92;19.98;;;5.30;95.50;;;;;;5092095;28;20317;-77
2021/12/05 12:56:18;;;;;;;34.83;19.73;;;5.40;95.60;;;;;;5096348;28;20492;-75
2021/12/05 12:58:49;;;;;;;31.98;18.08;;;5.40;95.50;;;;;;5096396;28;20028;-75
2021/12/05 13:13:06;;;;;;;37.60;21.13;;;5.40;95.10;;;;;;5092240;28;20497;-73
2021/12/05 13:15:52;;;;;;;41.55;20.98;;;5.40;95.40;;;;;;5096313;28;20035;-72
2021/12/05 13:18:29;;;;;;;35.80;21.63;;;5.40;95.50;;;;;;5110409;28;20016;-75
2021/12/05 13:21:26;;;;;;;41.10;20.77;;;5.50;95.60;;;;;;5097578;27;20418;-75
2021/12/05 13:23:56;;;;;;;41.33;21.65;;;5.50;95.60;;;;;;5101247;28;20020;-73
2021/12/05 13:26:28;;;;;;;37.75;20.23;;;5.60;95.60;;;;;;5115542;28;20020;-73
2021/12/05 13:29:09;;;;;;;30.42;19.63;;;5.70;95.50;;;;;;5087632;28;20043;-73
2021/12/05 13:31:49;;;;;;;36.28;18.83;;;5.70;95.30;;;;;;5088776;28;20030;-74
2021/12/05 13:34:30;;;;;;;36.30;19.80;;;5.80;95.20;;;;;;5103167;28;20046;-73
2021/12/05 13:37:13;;;;;;;31.77;18.85;;;5.90;94.80;;;;;;5096376;28;20023;-70
2021/12/05 13:39:47;;;;;;;28.60;18.33;;;5.90;94.70;;;;;;5101894;28;20125;-70
2021/12/05 13:42:34;;;;;;;34.05;19.55;;;5.90;94.80;;;;;;5087434;28;20036;-73
2021/12/05 13:45:05;;;;;;;35.45;20.38;;;6.00;94.70;;;;;;5095598;28;20095;-73
2021/12/05 13:47:55;;;;;;;37.67;20.50;;;6.00;94.50;;;;;;5093860;28;20044;-71
2021/12/05 13:50:25;;;;;;;37.83;22.30;;;6.00;94.30;;;;;;5096334;28;20558;-75
2021/12/05 13:52:57;;;;;;;37.05;21.20;;;6.00;94.20;;;;;;5095960;28;20465;-74
2021/12/05 13:55:39;;;;;;;34.28;20.52;;;5.90;94.10;;;;;;5092241;28;20031;-75
2021/12/05 13:58:32;;;;;;;45.17;20.98;;;5.90;94.40;;;;;;5096829;28;20035;-74
2021/12/05 14:01:18;;;;;;;42.97;22.27;;;5.90;94.60;;;;;;5088058;28;20103;-74
2021/12/05 14:04:06;;;;;;;39.92;21.50;;;5.80;94.70;;;;;;5089661;28;20029;-74
2021/12/05 14:06:41;;;;;;;42.92;22.90;;;5.80;94.80;;;;;;5086106;28;20020;-74
2021/12/05 14:09:21;;;;;;;45.92;22.88;;;5.70;95.10;;;;;;5087047;28;20033;-74
2021/12/05 14:11:48;;;;;;;47.05;23.95;;;5.80;95.30;;;;;;5078912;28;20052;-74
2021/12/05 14:14:16;;;;;;;41.58;24.48;;;5.70;95.40;;;;;;5073463;28;20098;-73
2021/12/05 14:17:00;;;;;;;44.58;22.33;;;5.70;95.60;;;;;;5075399;28;20060;-74
2021/12/05 14:19:29;;;;;;;42.33;22.45;;;5.70;95.50;;;;;;5074384;28;20114;-74
2021/12/05 14:21:59;;;;;;;41.40;23.38;;;5.70;95.60;;;;;;5079183;28;20033;-74
2021/12/05 14:24:43;;;;;;;40.58;23.88;;;5.70;95.80;;;;;;5069447;28;20016;-76
2021/12/05 14:27:22;;;;;;;49.80;25.27;;;5.70;95.80;;;;;;5087523;28;20020;-74
2021/12/05 14:29:53;;;;;;;49.28;25.77;;;5.70;95.80;;;;;;5087764;28;20440;-74
2021/12/05 14:32:33;;;;;;;45.80;26.45;;;5.60;95.80;;;;;;5074178;28;20082;-75
2021/12/05 14:35:20;;;;;;;45.80;24.85;;;5.60;95.80;;;;;;5086734;28;20026;-76
2021/12/05 14:37:49;;;;;;;43.30;23.98;;;5.60;95.90;;;;;;5084640;28;20074;-75
2021/12/05 14:40:21;;;;;;;45.95;24.90;;;5.60;96.10;;;;;;5093843;28;20052;-75
2021/12/05 14:42:50;;;;;;;;;;;5.60;96.30;;;;;;5083232;28;20028;-75
2021/12/05 14:45:22;;;;;;;47.40;23.35;;;5.50;96.30;;;;;;5083680;28;20008;-75
2021/12/05 14:47:52;;;;;;;43.17;22.40;;;5.50;96.50;;;;;;5084478;28;20081;-75
2021/12/05 14:50:22;;;;;;;41.80;22.65;;;5.50;96.50;;;;;;5081873;28;20468;-76
2021/12/05 14:52:52;;;;;;;46.65;23.27;;;5.50;96.40;;;;;;5092412;28;20040;-75
2021/12/05 14:55:20;;;;;;;42.92;22.95;;;5.50;96.40;;;;;;5094763;28;20039;-77
2021/12/05 14:57:49;;;;;;;47.08;24.40;;;5.50;96.30;;;;;;5095386;28;20016;-73
2021/12/05 15:00:35;;;;;;;43.35;23.52;;;5.50;96.30;;;;;;5094511;28;20096;-79
2021/12/05 15:03:13;;;;;;;45.53;24.45;;;5.50;96.50;;;;;;5078346;28;20024;-79
2021/12/05 15:05:58;;;;;;;47.03;23.27;;;5.40;97.00;;;;;;5096654;28;20020;-79
2021/12/05 15:08:28;;;;;;;43.33;23.90;;;5.50;97.40;;;;;;5073924;28;20078;-79
2021/12/05 15:10:58;;;;;;;50.35;24.88;;;5.60;97.60;;;;;;5072742;28;20032;-80
2021/12/05 15:13:33;;;;;;;54.25;24.60;;;5.60;97.20;;;;;;5058136;28;20039;-78
2021/12/05 15:16:00;;;;;;;49.13;24.67;;;5.60;96.90;;;;;;5082857;28;20529;-80
2021/12/05 15:18:34;;;;;;;53.30;26.00;;;5.60;96.80;;;;;;5079699;28;20028;-77
2021/12/05 15:21:14;;;;;;;51.33;25.73;;;5.70;96.50;;;;;;5061207;28;20060;-79
2021/12/05 15:23:41;;;;;;;57.05;27.80;;;5.70;96.50;;;;;;5075749;28;20481;-80
2021/12/05 15:26:09;;;;;;;56.90;26.02;;;5.70;96.70;;;;;;5084695;28;20025;-79
2021/12/05 15:28:36;;;;;;;54.75;26.13;;;5.70;96.70;;;;;;5084920;28;20020;-79
2021/12/05 15:31:05;;;;;;;54.28;28.55;;;5.80;96.40;;;;;;5081461;28;20025;-79
2021/12/05 15:33:34;;;;;;;59.30;28.27;;;5.80;96.10;;;;;;5076269;28;20378;-78
2021/12/05 15:36:12;;;;;;;52.75;26.63;;;5.90;95.80;;;;;;5076249;28;20055;-79
2021/12/05 15:38:39;;;;;;;59.45;28.30;;;5.90;95.70;;;;;;5082569;28;20016;-81
2021/12/05 15:41:15;;;;;;;55.60;27.65;;;5.90;95.90;;;;;;5094054;28;20044;-79
2021/12/05 15:43:43;;;;;;;51.20;25.05;;;6.00;95.70;;;;;;5088717;28;20017;-76
2021/12/05 15:46:13;;;;;;;56.90;26.05;;;6.00;95.80;;;;;;5079507;28;20033;-77
2021/12/05 15:48:45;;;;;;;54.38;26.25;;;6.00;95.50;;;;;;5080726;28;20028;-77
2021/12/05 15:51:13;;;;;;;43.90;23.92;;;6.00;95.30;;;;;;5077341;28;20036;-75
2021/12/05 15:53:41;;;;;;;44.30;22.77;;;6.00;94.90;;;;;;5077360;28;20028;-77
2021/12/05 15:56:13;;;;;;;45.92;22.17;;;6.00;95.10;;;;;;5073408;28;20033;-76
2021/12/05 15:58:57;;;;;;;38.30;20.67;;;6.00;94.90;;;;;;5074144;28;20021;-78
2021/12/05 16:01:24;;;;;;;39.78;20.40;;;6.10;94.50;;;;;;5076006;28;20111;-76
2021/12/05 16:04:09;;;;;;;34.42;17.58;;;6.00;94.30;;;;;;5080250;28;20096;-77
2021/12/05 16:06:39;;;;;;;30.35;16.45;;;6.00;94.10;;;;;;5080601;28;20102;-78
2021/12/05 16:09:17;;;;;;;25.48;14.27;;;5.90;94.00;;;;;;5081735;28;20035;-81
2021/12/05 16:11:50;;;;;;;28.08;13.02;;;5.90;94.40;;;;;;5087405;28;20033;-79
2021/12/05 16:14:32;;;;;;;28.10;14.27;;;5.90;94.20;;;;;;5051146;28;20043;-80
2021/12/05 16:17:21;;;;;;;29.10;15.05;;;5.90;94.30;;;;;;5091292;28;20073;-80
2021/12/05 16:20:09;;;;;;;27.67;14.35;;;5.90;94.10;;;;;;5091086;28;20025;-79
2021/12/05 16:23:24;;;;;;;27.77;15.15;;;5.80;94.30;;;;;;5110505;28;20024;-81
2021/12/05 16:26:23;;;;;;;30.48;16.13;;;5.70;94.60;;;;;;4997396;28;20026;-83
2021/12/05 16:29:02;;;;;;;32.92;16.38;;;5.60;94.70;;;;;;4968521;28;20128;-76
2021/12/05 16:31:57;;;;;;;34.08;17.73;;;5.60;95.00;;;;;;4979162;28;20046;-75
2021/12/05 16:34:46;;;;;;;33.38;17.55;;;5.60;95.40;;;;;;4995848;28;20034;-79
2021/12/05 16:37:15;;;;;;;33.88;18.35;;;5.50;95.60;;;;;;5049111;28;20385;-84
2021/12/05 16:39:54;;;;;;;34.63;18.08;;;5.40;95.60;;;;;;5078604;28;20028;-82
2021/12/05 16:42:24;;;;;;;30.30;17.58;;;5.40;95.00;;;;;;5076726;28;20093;-82
2021/12/05 16:44:53;;;;;;;31.08;16.70;;;5.40;95.20;;;;;;5061096;28;20504;-81
2021/12/05 16:47:31;;;;;;;31.58;16.60;;;5.30;95.20;;;;;;5076977;28;20485;-83
2021/12/05 16:50:20;;;;;;;28.88;16.42;;;5.30;95.40;;;;;;5059197;28;20021;-79
2021/12/05 16:52:50;;;;;;;30.58;16.02;;;5.30;95.40;;;;;;5076707;28;20096;-84
2021/12/05 16:55:29;;;;;;;29.95;16.40;;;5.20;95.50;;;;;;5077902;28;20041;-80
2021/12/05 16:58:09;;;;;;;30.33;16.95;;;5.20;95.60;;;;;;5075233;28;20028;-76
2021/12/05 17:00:40;;;;;;;36.97;17.35;;;5.10;95.60;;;;;;5085060;28;20089;-77
2021/12/05 17:03:09;;;;;;;28.45;15.48;;;5.10;95.60;;;;;;5090279;28;20105;-78
2021/12/05 17:05:59;;;;;;;32.58;17.00;;;5.10;95.70;;;;;;5093117;28;20036;-79
2021/12/05 17:08:26;;;;;;;31.90;17.17;;;5.10;95.80;;;;;;5103239;28;20082;-78
2021/12/05 17:11:09;;;;;;;37.35;18.27;;;5.00;95.90;;;;;;5108028;28;20062;-77
2021/12/05 17:13:48;;;;;;;35.13;17.88;;;5.10;96.10;;;;;;5106756;28;20042;-79
2021/12/05 17:16:24;;;;;;;32.83;16.92;;;5.00;96.00;;;;;;5108175;27;20032;-79
2021/12/05 17:19:12;;;;;;;31.10;16.92;;;5.00;96.20;;;;;;5106478;28;20161;-79
2021/12/05 17:21:47;;;;;;;33.42;18.85;;;5.00;96.30;;;;;;5116171;27;20140;-79
2021/12/05 17:24:36;;;;;;;29.05;17.08;;;5.00;96.20;;;;;;5115069;28;20072;-80
2021/12/05 17:27:09;;;;;;;36.33;18.88;;;5.00;96.10;;;;;;5114905;28;20047;-79
2021/12/05 17:29:59;;;;;;;33.35;15.77;;;5.00;96.00;;;;;;5116229;28;20070;-77
2021/12/05 17:32:27;;;;;;;29.45;15.70;;;4.90;96.10;;;;;;5116771;27;20035;-76
2021/12/05 17:34:58;;;;;;;32.33;16.38;;;4.90;96.20;;;;;;5116211;28;20106;-78
2021/12/05 17:37:27;;;;;;;32.03;16.13;;;4.90;96.20;;;;;;5118367;28;20376;-78
2021/12/05 17:40:03;;;;;;;31.48;17.92;;;4.90;96.20;;;;;;5114948;28;20053;-77
2021/12/05 17:42:32;;;;;;;31.23;17.20;;;4.90;96.20;;;;;;5116554;28;20032;-77
2021/12/05 17:45:03;;;;;;;32.58;17.85;;;4.90;96.20;;;;;;5114733;28;20438;-78
2021/12/05 17:47:43;;;;;;;30.95;16.75;;;4.90;96.10;;;;;;5115034;27;20050;-79
2021/12/05 17:50:15;;;;;;;33.97;16.40;;;4.90;96.20;;;;;;5095630;28;20032;-77
2021/12/05 17:52:43;;;;;;;34.10;17.65;;;4.90;96.30;;;;;;5096303;28;20024;-79
2021/12/05 17:55:24;;;;;;;35.15;17.67;;;4.90;96.30;;;;;;5096261;28;20435;-79
2021/12/05 17:57:59;;;;;;;35.45;18.23;;;4.90;96.40;;;;;;5094426;28;20103;-79
2021/12/05 18:00:56;;;;;;;32.65;18.13;;;4.90;96.50;;;;;;5094197;28;20427;-79
2021/12/05 18:03:25;;;;;;;31.38;18.05;;;4.80;96.40;;;;;;5094252;28;20017;-79
2021/12/05 18:05:51;;;;;;;32.78;17.30;;;4.80;96.30;;;;;;5095650;28;20170;-79
2021/12/05 18:08:24;;;;;;;35.17;18.13;;;4.80;96.30;;;;;;5096165;28;20016;-79
2021/12/05 18:10:57;;;;;;;34.53;17.30;;;4.80;96.60;;;;;;5078301;28;20047;-78
2021/12/05 18:13:25;;;;;;;32.15;17.67;;;4.70;96.70;;;;;;5074664;28;20059;-80
2021/12/05 18:16:05;;;;;;;32.88;17.08;;;4.70;96.80;;;;;;5072930;28;20128;-77
2021/12/05 18:18:55;;;;;;;30.45;15.85;;;4.70;96.40;;;;;;5092466;28;20073;-79
2021/12/05 18:21:24;;;;;;;36.83;18.52;;;4.70;96.10;;;;;;5083144;28;20127;-78
2021/12/05 18:23:52;;;;;;;43.30;20.35;;;4.70;96.00;;;;;;5081170;28;20021;-78
2021/12/05 18:26:18;;;;;;;38.00;19.90;;;4.60;95.60;;;;;;5088813;28;20085;-80
2021/12/05 18:28:49;;;;;;;38.30;18.73;;;4.60;95.40;;;;;;5089216;28;20099;-78
2021/12/05 18:31:19;;;;;;;40.97;20.40;;;4.50;95.30;;;;;;5090581;28;20440;-79
2021/12/05 18:33:59;;;;;;;44.92;21.00;;;4.50;95.30;;;;;;5080159;28;20032;-81
2021/12/05 18:37:02;;;;;;;41.45;22.63;;;4.50;95.40;;;;;;5076545;28;20039;-78
2021/12/05 18:39:41;;;;;;;44.20;22.15;;;4.40;95.40;;;;;;5073233;28;20166;-77
2021/12/05 18:42:09;;;;;;;39.08;20.52;;;4.40;95.30;;;;;;5072721;28;20074;-79
2021/12/05 18:44:39;;;;;;;35.85;19.75;;;4.40;95.10;;;;;;5093506;28;20040;-77
2021/12/05 18:47:08;;;;;;;43.28;20.45;;;4.40;95.00;;;;;;5089366;28;20040;-76
2021/12/05 18:49:36;;;;;;;38.55;21.15;;;4.40;94.90;;;;;;5093408;28;20028;-75
2021/12/05 18:52:04;;;;;;;38.13;19.90;;;4.40;94.80;;;;;;5092883;28;20072;-75
2021/12/05 18:54:30;;;;;;;44.03;22.23;;;4.40;94.60;;;;;;5076594;28;20032;-76
2021/12/05 18:56:58;;;;;;;42.13;22.27;;;4.40;94.50;;;;;;5059571;28;20024;-76
2021/12/05 18:59:32;;;;;;;53.55;26.65;;;4.40;94.40;;;;;;5076421;28;20028;-78
2021/12/05 19:04:55;;;;;;;45.80;22.88;;;4.30;94.00;;;;;;5094668;28;20181;-76
2021/12/05 19:07:29;;;;;;;45.10;24.25;;;4.20;93.90;;;;;;5094383;28;20016;-75
2021/12/05 19:12:44;;;;;;;45.63;22.73;;;4.20;94.30;;;;;;5094388;28;20089;-76